ΕΜΥ, Εθνική Μετεωρολογική Υπηρεσία - Δελτία Καιρού, Προγνώσεις

ΑΕΡΟΝΑΥΤΙΛΙΑ

GREEK AIRPORTS CODES

LGRP 300820Z 26009KT 9999 FEW018 26/18 Q1009 NOSIG=

EUROPEAN AIRPORTS CODES

LFPO 300800Z 24007KT 9999 SCT009 BKN053 16/14 Q1015 NOSIG=